sensor_id;sensor_type;location;lat;lon;timestamp;P1;durP1;ratioP1;P2;durP2;ratioP2
47329;SDS011;33060;50.178;7.570;2024-03-23T00:51:58;38.97;;;15.82;;
47329;SDS011;33060;50.178;7.570;2024-03-23T00:54:24;37.50;;;16.02;;
47329;SDS011;33060;50.178;7.570;2024-03-23T00:56:50;35.70;;;14.30;;
47329;SDS011;33060;50.178;7.570;2024-03-23T00:59:16;37.17;;;16.80;;
47329;SDS011;33060;50.178;7.570;2024-03-23T01:01:41;47.45;;;18.58;;
47329;SDS011;33060;50.178;7.570;2024-03-23T01:04:07;48.78;;;17.58;;
47329;SDS011;33060;50.178;7.570;2024-03-23T01:06:33;42.38;;;17.92;;
47329;SDS011;33060;50.178;7.570;2024-03-23T01:08:58;42.13;;;17.13;;
47329;SDS011;33060;50.178;7.570;2024-03-23T01:11:24;41.30;;;17.83;;
47329;SDS011;33060;50.178;7.570;2024-03-23T01:13:50;38.95;;;16.20;;
47329;SDS011;33060;50.178;7.570;2024-03-23T01:16:15;43.88;;;18.15;;
47329;SDS011;33060;50.178;7.570;2024-03-23T01:18:41;44.72;;;16.83;;
47329;SDS011;33060;50.178;7.570;2024-03-23T01:21:07;46.85;;;19.77;;
47329;SDS011;33060;50.178;7.570;2024-03-23T01:23:32;47.95;;;19.35;;
47329;SDS011;33060;50.178;7.570;2024-03-23T01:25:58;41.05;;;17.65;;
47329;SDS011;33060;50.178;7.570;2024-03-23T01:28:24;39.42;;;16.30;;
47329;SDS011;33060;50.178;7.570;2024-03-23T01:30:50;40.47;;;16.27;;
47329;SDS011;33060;50.178;7.570;2024-03-23T01:33:15;37.67;;;16.27;;
47329;SDS011;33060;50.178;7.570;2024-03-23T01:35:41;37.90;;;15.30;;
47329;SDS011;33060;50.178;7.570;2024-03-23T01:38:07;36.42;;;16.40;;
47329;SDS011;33060;50.178;7.570;2024-03-23T01:40:32;42.22;;;16.85;;
47329;SDS011;33060;50.178;7.570;2024-03-23T01:43:01;41.22;;;17.95;;
47329;SDS011;33060;50.178;7.570;2024-03-23T01:45:30;39.55;;;16.40;;
47329;SDS011;33060;50.178;7.570;2024-03-23T01:52:49;39.00;;;15.05;;
47329;SDS011;33060;50.178;7.570;2024-03-23T01:55:15;40.58;;;17.00;;
47329;SDS011;33060;50.178;7.570;2024-03-23T01:57:41;39.05;;;16.92;;
47329;SDS011;33060;50.178;7.570;2024-03-23T02:00:07;42.80;;;17.80;;
47329;SDS011;33060;50.178;7.570;2024-03-23T02:02:44;49.47;;;20.70;;
47329;SDS011;33060;50.178;7.570;2024-03-23T02:05:13;46.50;;;18.58;;
47329;SDS011;33060;50.178;7.570;2024-03-23T02:07:40;45.95;;;18.88;;
47329;SDS011;33060;50.178;7.570;2024-03-23T02:10:07;54.35;;;20.92;;
47329;SDS011;33060;50.178;7.570;2024-03-23T02:12:33;45.20;;;17.17;;
47329;SDS011;33060;50.178;7.570;2024-03-23T02:14:59;39.00;;;14.68;;
47329;SDS011;33060;50.178;7.570;2024-03-23T02:17:25;39.13;;;14.73;;
47329;SDS011;33060;50.178;7.570;2024-03-23T02:19:51;27.95;;;12.30;;
47329;SDS011;33060;50.178;7.570;2024-03-23T02:22:17;34.00;;;14.30;;
47329;SDS011;33060;50.178;7.570;2024-03-23T02:24:43;28.05;;;11.27;;
47329;SDS011;33060;50.178;7.570;2024-03-23T02:27:08;32.47;;;13.00;;
47329;SDS011;33060;50.178;7.570;2024-03-23T02:29:34;26.83;;;11.02;;
47329;SDS011;33060;50.178;7.570;2024-03-23T02:32:00;24.17;;;10.55;;
47329;SDS011;33060;50.178;7.570;2024-03-23T02:34:26;18.60;;;8.20;;
47329;SDS011;33060;50.178;7.570;2024-03-23T02:36:52;13.50;;;7.22;;
47329;SDS011;33060;50.178;7.570;2024-03-23T02:39:18;16.85;;;10.50;;
47329;SDS011;33060;50.178;7.570;2024-03-23T02:41:44;14.02;;;6.88;;
47329;SDS011;33060;50.178;7.570;2024-03-23T02:44:09;9.13;;;5.15;;
47329;SDS011;33060;50.178;7.570;2024-03-23T02:46:37;8.70;;;5.15;;
47329;SDS011;33060;50.178;7.570;2024-03-23T02:49:03;6.88;;;3.35;;
47329;SDS011;33060;50.178;7.570;2024-03-23T02:51:31;6.97;;;4.38;;
47329;SDS011;33060;50.178;7.570;2024-03-23T02:53:56;6.55;;;3.70;;
47329;SDS011;33060;50.178;7.570;2024-03-23T02:56:22;7.72;;;4.72;;
47329;SDS011;33060;50.178;7.570;2024-03-23T02:58:48;7.13;;;3.92;;
47329;SDS011;33060;50.178;7.570;2024-03-23T03:01:14;8.57;;;4.30;;
47329;SDS011;33060;50.178;7.570;2024-03-23T03:03:40;7.60;;;4.90;;
47329;SDS011;33060;50.178;7.570;2024-03-23T03:06:06;7.60;;;3.70;;
47329;SDS011;33060;50.178;7.570;2024-03-23T03:08:31;6.35;;;2.65;;
47329;SDS011;33060;50.178;7.570;2024-03-23T03:10:57;5.75;;;2.80;;
47329;SDS011;33060;50.178;7.570;2024-03-23T03:13:23;6.88;;;3.45;;
47329;SDS011;33060;50.178;7.570;2024-03-23T03:15:48;8.18;;;4.50;;
47329;SDS011;33060;50.178;7.570;2024-03-23T03:18:14;7.28;;;3.92;;
47329;SDS011;33060;50.178;7.570;2024-03-23T03:20:40;8.00;;;4.10;;
47329;SDS011;33060;50.178;7.570;2024-03-23T03:23:06;7.30;;;3.95;;
47329;SDS011;33060;50.178;7.570;2024-03-23T03:25:32;5.72;;;3.05;;
47329;SDS011;33060;50.178;7.570;2024-03-23T03:27:58;6.10;;;3.38;;
47329;SDS011;33060;50.178;7.570;2024-03-23T03:30:24;6.63;;;3.10;;
47329;SDS011;33060;50.178;7.570;2024-03-23T03:32:51;6.93;;;3.60;;
47329;SDS011;33060;50.178;7.570;2024-03-23T03:35:18;6.78;;;3.15;;
47329;SDS011;33060;50.178;7.570;2024-03-23T03:37:44;6.63;;;2.60;;
47329;SDS011;33060;50.178;7.570;2024-03-23T03:40:10;8.18;;;3.42;;
47329;SDS011;33060;50.178;7.570;2024-03-23T03:42:36;6.70;;;2.42;;
47329;SDS011;33060;50.178;7.570;2024-03-23T03:45:02;6.68;;;2.33;;
47329;SDS011;33060;50.178;7.570;2024-03-23T03:47:29;4.47;;;2.00;;
47329;SDS011;33060;50.178;7.570;2024-03-23T03:49:56;5.53;;;2.15;;
47329;SDS011;33060;50.178;7.570;2024-03-23T03:52:21;5.55;;;2.35;;
47329;SDS011;33060;50.178;7.570;2024-03-23T03:54:47;5.25;;;1.75;;
47329;SDS011;33060;50.178;7.570;2024-03-23T03:57:13;5.35;;;2.15;;
47329;SDS011;33060;50.178;7.570;2024-03-23T03:59:39;8.05;;;3.28;;
47329;SDS011;33060;50.178;7.570;2024-03-23T04:02:04;5.97;;;2.88;;
47329;SDS011;33060;50.178;7.570;2024-03-23T04:04:30;5.28;;;2.20;;
47329;SDS011;33060;50.178;7.570;2024-03-23T04:06:59;5.97;;;2.80;;
47329;SDS011;33060;50.178;7.570;2024-03-23T04:09:25;6.65;;;2.80;;
47329;SDS011;33060;50.178;7.570;2024-03-23T04:11:51;6.20;;;2.53;;
47329;SDS011;33060;50.178;7.570;2024-03-23T04:14:17;5.38;;;2.17;;
47329;SDS011;33060;50.178;7.570;2024-03-23T04:16:43;6.85;;;2.58;;
47329;SDS011;33060;50.178;7.570;2024-03-23T04:19:08;5.93;;;2.25;;
47329;SDS011;33060;50.178;7.570;2024-03-23T04:21:34;5.53;;;1.85;;
47329;SDS011;33060;50.178;7.570;2024-03-23T04:24:01;4.35;;;1.38;;
47329;SDS011;33060;50.178;7.570;2024-03-23T04:26:26;3.80;;;1.15;;
47329;SDS011;33060;50.178;7.570;2024-03-23T04:28:53;3.50;;;0.90;;
47329;SDS011;33060;50.178;7.570;2024-03-23T04:31:19;2.45;;;0.73;;
47329;SDS011;33060;50.178;7.570;2024-03-23T04:33:44;3.90;;;0.88;;
47329;SDS011;33060;50.178;7.570;2024-03-23T04:36:10;2.35;;;0.30;;
47329;SDS011;33060;50.178;7.570;2024-03-23T04:38:36;2.78;;;0.43;;
47329;SDS011;33060;50.178;7.570;2024-03-23T04:41:02;2.88;;;1.05;;
47329;SDS011;33060;50.178;7.570;2024-03-23T04:43:28;3.75;;;1.05;;
47329;SDS011;33060;50.178;7.570;2024-03-23T04:45:53;3.15;;;0.65;;
47329;SDS011;33060;50.178;7.570;2024-03-23T04:48:23;2.60;;;0.80;;
47329;SDS011;33060;50.178;7.570;2024-03-23T04:50:49;4.75;;;1.05;;
47329;SDS011;33060;50.178;7.570;2024-03-23T04:53:15;4.90;;;1.15;;
47329;SDS011;33060;50.178;7.570;2024-03-23T04:55:42;2.80;;;1.50;;
47329;SDS011;33060;50.178;7.570;2024-03-23T04:58:08;2.40;;;0.88;;
47329;SDS011;33060;50.178;7.570;2024-03-23T05:00:33;2.15;;;0.90;;
47329;SDS011;33060;50.178;7.570;2024-03-23T05:03:00;2.50;;;1.00;;
47329;SDS011;33060;50.178;7.570;2024-03-23T05:05:25;3.97;;;1.00;;
47329;SDS011;33060;50.178;7.570;2024-03-23T05:07:51;3.17;;;1.20;;
47329;SDS011;33060;50.178;7.570;2024-03-23T05:10:17;4.18;;;1.60;;
47329;SDS011;33060;50.178;7.570;2024-03-23T05:12:42;4.35;;;1.92;;
47329;SDS011;33060;50.178;7.570;2024-03-23T05:15:10;5.57;;;2.50;;
47329;SDS011;33060;50.178;7.570;2024-03-23T05:17:35;4.47;;;1.77;;
47329;SDS011;33060;50.178;7.570;2024-03-23T05:20:03;5.13;;;1.92;;
47329;SDS011;33060;50.178;7.570;2024-03-23T05:22:29;6.65;;;2.67;;
47329;SDS011;33060;50.178;7.570;2024-03-23T05:24:56;5.63;;;2.35;;
47329;SDS011;33060;50.178;7.570;2024-03-23T05:27:21;5.60;;;2.42;;
47329;SDS011;33060;50.178;7.570;2024-03-23T05:29:48;6.57;;;2.35;;
47329;SDS011;33060;50.178;7.570;2024-03-23T05:32:14;5.90;;;3.15;;
47329;SDS011;33060;50.178;7.570;2024-03-23T05:34:39;6.72;;;2.80;;
47329;SDS011;33060;50.178;7.570;2024-03-23T05:37:05;6.88;;;3.30;;
47329;SDS011;33060;50.178;7.570;2024-03-23T05:39:31;7.38;;;3.20;;
47329;SDS011;33060;50.178;7.570;2024-03-23T05:41:56;7.93;;;3.35;;
47329;SDS011;33060;50.178;7.570;2024-03-23T05:44:22;7.15;;;3.03;;
47329;SDS011;33060;50.178;7.570;2024-03-23T05:46:48;6.88;;;2.67;;
47329;SDS011;33060;50.178;7.570;2024-03-23T05:49:15;8.57;;;3.55;;
47329;SDS011;33060;50.178;7.570;2024-03-23T05:51:41;7.25;;;2.50;;
47329;SDS011;33060;50.178;7.570;2024-03-23T05:54:07;7.50;;;3.20;;
47329;SDS011;33060;50.178;7.570;2024-03-23T05:56:32;7.25;;;2.78;;
47329;SDS011;33060;50.178;7.570;2024-03-23T05:58:58;7.65;;;3.13;;
47329;SDS011;33060;50.178;7.570;2024-03-23T06:01:24;6.32;;;3.35;;
47329;SDS011;33060;50.178;7.570;2024-03-23T06:03:49;6.38;;;2.55;;
47329;SDS011;33060;50.178;7.570;2024-03-23T06:06:16;6.68;;;3.03;;
47329;SDS011;33060;50.178;7.570;2024-03-23T06:08:42;8.00;;;2.60;;
47329;SDS011;33060;50.178;7.570;2024-03-23T06:11:07;7.95;;;3.05;;
47329;SDS011;33060;50.178;7.570;2024-03-23T06:13:33;7.82;;;2.58;;
47329;SDS011;33060;50.178;7.570;2024-03-23T06:16:00;7.82;;;2.78;;
47329;SDS011;33060;50.178;7.570;2024-03-23T06:18:26;9.48;;;3.53;;
47329;SDS011;33060;50.178;7.570;2024-03-23T06:20:53;8.48;;;3.17;;
47329;SDS011;33060;50.178;7.570;2024-03-23T06:23:19;9.30;;;3.10;;
47329;SDS011;33060;50.178;7.570;2024-03-23T06:25:46;8.48;;;3.35;;
47329;SDS011;33060;50.178;7.570;2024-03-23T06:28:12;8.23;;;3.50;;
47329;SDS011;33060;50.178;7.570;2024-03-23T06:30:38;8.38;;;2.80;;
47329;SDS011;33060;50.178;7.570;2024-03-23T06:33:03;8.75;;;4.13;;
47329;SDS011;33060;50.178;7.570;2024-03-23T06:35:31;8.10;;;3.78;;
47329;SDS011;33060;50.178;7.570;2024-03-23T06:37:57;7.72;;;3.15;;
47329;SDS011;33060;50.178;7.570;2024-03-23T06:40:23;7.10;;;2.95;;
47329;SDS011;33060;50.178;7.570;2024-03-23T06:42:49;7.10;;;3.20;;
47329;SDS011;33060;50.178;7.570;2024-03-23T06:45:16;8.82;;;3.25;;
47329;SDS011;33060;50.178;7.570;2024-03-23T06:47:42;8.95;;;3.00;;
47329;SDS011;33060;50.178;7.570;2024-03-23T06:50:08;9.45;;;2.85;;
47329;SDS011;33060;50.178;7.570;2024-03-23T06:52:35;7.82;;;3.17;;
47329;SDS011;33060;50.178;7.570;2024-03-23T06:55:01;8.15;;;3.33;;
47329;SDS011;33060;50.178;7.570;2024-03-23T06:57:29;7.90;;;3.10;;
47329;SDS011;33060;50.178;7.570;2024-03-23T06:59:55;7.50;;;3.15;;
47329;SDS011;33060;50.178;7.570;2024-03-23T07:02:21;10.63;;;3.33;;
47329;SDS011;33060;50.178;7.570;2024-03-23T07:04:50;11.45;;;3.65;;
47329;SDS011;33060;50.178;7.570;2024-03-23T07:07:16;9.07;;;3.55;;
47329;SDS011;33060;50.178;7.570;2024-03-23T07:09:41;7.10;;;3.13;;
47329;SDS011;33060;50.178;7.570;2024-03-23T07:12:07;9.07;;;3.08;;
47329;SDS011;33060;50.178;7.570;2024-03-23T07:14:33;9.80;;;3.67;;
47329;SDS011;33060;50.178;7.570;2024-03-23T07:16:59;9.07;;;3.67;;
47329;SDS011;33060;50.178;7.570;2024-03-23T07:19:24;8.88;;;2.90;;
47329;SDS011;33060;50.178;7.570;2024-03-23T07:21:50;8.68;;;3.15;;
47329;SDS011;33060;50.178;7.570;2024-03-23T07:24:16;8.73;;;3.13;;
47329;SDS011;33060;50.178;7.570;2024-03-23T07:26:41;12.48;;;3.03;;
47329;SDS011;33060;50.178;7.570;2024-03-23T07:29:07;9.02;;;3.63;;
47329;SDS011;33060;50.178;7.570;2024-03-23T07:31:33;11.15;;;3.38;;
47329;SDS011;33060;50.178;7.570;2024-03-23T07:33:59;8.25;;;2.55;;
47329;SDS011;33060;50.178;7.570;2024-03-23T07:36:24;13.20;;;3.30;;
47329;SDS011;33060;50.178;7.570;2024-03-23T07:38:51;7.10;;;3.40;;
47329;SDS011;33060;50.178;7.570;2024-03-23T07:41:17;8.65;;;3.00;;
47329;SDS011;33060;50.178;7.570;2024-03-23T07:43:44;7.18;;;3.10;;
47329;SDS011;33060;50.178;7.570;2024-03-23T07:46:11;9.23;;;3.45;;
47329;SDS011;33060;50.178;7.570;2024-03-23T07:48:40;8.05;;;4.07;;
47329;SDS011;33060;50.178;7.570;2024-03-23T07:51:16;7.82;;;3.60;;
47329;SDS011;33060;50.178;7.570;2024-03-23T07:53:43;7.22;;;3.22;;
47329;SDS011;33060;50.178;7.570;2024-03-23T07:56:11;10.35;;;2.90;;
47329;SDS011;33060;50.178;7.570;2024-03-23T07:58:37;6.68;;;2.50;;
47329;SDS011;33060;50.178;7.570;2024-03-23T08:01:08;9.65;;;3.17;;
47329;SDS011;33060;50.178;7.570;2024-03-23T08:03:36;7.82;;;2.83;;
47329;SDS011;33060;50.178;7.570;2024-03-23T08:08:42;8.98;;;3.65;;
47329;SDS011;33060;50.178;7.570;2024-03-23T08:11:09;8.52;;;3.20;;
47329;SDS011;33060;50.178;7.570;2024-03-23T08:13:36;14.68;;;3.38;;
47329;SDS011;33060;50.178;7.570;2024-03-23T08:16:04;9.80;;;2.97;;
47329;SDS011;33060;50.178;7.570;2024-03-23T08:18:30;9.68;;;3.67;;
47329;SDS011;33060;50.178;7.570;2024-03-23T08:21:00;7.10;;;2.85;;
47329;SDS011;33060;50.178;7.570;2024-03-23T08:23:27;11.15;;;3.50;;
47329;SDS011;33060;50.178;7.570;2024-03-23T08:26:00;8.10;;;3.00;;
47329;SDS011;33060;50.178;7.570;2024-03-23T08:28:26;8.00;;;2.85;;
47329;SDS011;33060;50.178;7.570;2024-03-23T08:30:53;7.70;;;2.90;;
47329;SDS011;33060;50.178;7.570;2024-03-23T08:33:19;11.00;;;2.88;;
47329;SDS011;33060;50.178;7.570;2024-03-23T08:35:55;7.03;;;2.83;;
47329;SDS011;33060;50.178;7.570;2024-03-23T08:38:22;8.18;;;2.78;;
47329;SDS011;33060;50.178;7.570;2024-03-23T08:41:10;9.15;;;3.25;;
47329;SDS011;33060;50.178;7.570;2024-03-23T08:43:36;6.85;;;2.75;;
47329;SDS011;33060;50.178;7.570;2024-03-23T08:46:12;11.63;;;3.05;;
47329;SDS011;33060;50.178;7.570;2024-03-23T08:48:43;10.60;;;3.08;;
47329;SDS011;33060;50.178;7.570;2024-03-23T08:51:11;9.48;;;3.50;;
47329;SDS011;33060;50.178;7.570;2024-03-23T08:53:41;9.93;;;2.83;;
47329;SDS011;33060;50.178;7.570;2024-03-23T08:58:34;6.90;;;2.20;;
47329;SDS011;33060;50.178;7.570;2024-03-23T09:01:11;10.32;;;3.03;;
47329;SDS011;33060;50.178;7.570;2024-03-23T09:03:41;14.48;;;2.28;;
47329;SDS011;33060;50.178;7.570;2024-03-23T09:06:07;9.70;;;1.98;;
47329;SDS011;33060;50.178;7.570;2024-03-23T09:08:34;7.07;;;2.28;;
47329;SDS011;33060;50.178;7.570;2024-03-23T09:11:05;9.90;;;2.95;;
47329;SDS011;33060;50.178;7.570;2024-03-23T09:13:32;13.02;;;2.63;;
47329;SDS011;33060;50.178;7.570;2024-03-23T09:15:59;10.45;;;3.22;;
47329;SDS011;33060;50.178;7.570;2024-03-23T09:18:25;7.60;;;2.85;;
47329;SDS011;33060;50.178;7.570;2024-03-23T09:20:51;12.38;;;3.08;;
47329;SDS011;33060;50.178;7.570;2024-03-23T09:23:18;9.70;;;2.33;;
47329;SDS011;33060;50.178;7.570;2024-03-23T09:25:44;5.57;;;1.08;;
47329;SDS011;33060;50.178;7.570;2024-03-23T09:28:11;8.73;;;1.23;;
47329;SDS011;33060;50.178;7.570;2024-03-23T09:30:36;5.50;;;1.27;;
47329;SDS011;33060;50.178;7.570;2024-03-23T09:33:08;6.20;;;1.20;;
47329;SDS011;33060;50.178;7.570;2024-03-23T09:35:37;7.10;;;1.60;;
47329;SDS011;33060;50.178;7.570;2024-03-23T09:38:04;5.03;;;1.40;;
47329;SDS011;33060;50.178;7.570;2024-03-23T09:40:30;6.47;;;1.50;;
47329;SDS011;33060;50.178;7.570;2024-03-23T09:42:56;4.28;;;1.33;;
47329;SDS011;33060;50.178;7.570;2024-03-23T09:45:31;5.80;;;1.67;;
47329;SDS011;33060;50.178;7.570;2024-03-23T09:48:01;6.55;;;1.70;;
47329;SDS011;33060;50.178;7.570;2024-03-23T09:50:27;7.43;;;1.80;;
47329;SDS011;33060;50.178;7.570;2024-03-23T09:52:52;7.15;;;2.00;;
47329;SDS011;33060;50.178;7.570;2024-03-23T09:55:18;8.20;;;2.40;;
47329;SDS011;33060;50.178;7.570;2024-03-23T09:57:44;5.82;;;2.03;;
47329;SDS011;33060;50.178;7.570;2024-03-23T10:00:10;7.40;;;2.50;;
47329;SDS011;33060;50.178;7.570;2024-03-23T10:02:37;7.22;;;1.98;;
47329;SDS011;33060;50.178;7.570;2024-03-23T10:05:03;7.85;;;2.35;;
47329;SDS011;33060;50.178;7.570;2024-03-23T10:07:29;6.28;;;1.98;;
47329;SDS011;33060;50.178;7.570;2024-03-23T10:09:55;8.38;;;2.25;;
47329;SDS011;33060;50.178;7.570;2024-03-23T10:12:22;6.82;;;2.75;;
47329;SDS011;33060;50.178;7.570;2024-03-23T10:14:49;6.07;;;2.65;;
47329;SDS011;33060;50.178;7.570;2024-03-23T10:17:18;7.95;;;2.97;;
47329;SDS011;33060;50.178;7.570;2024-03-23T10:19:50;7.93;;;2.85;;
47329;SDS011;33060;50.178;7.570;2024-03-23T10:24:44;7.13;;;2.33;;
47329;SDS011;33060;50.178;7.570;2024-03-23T10:27:14;8.70;;;2.47;;
47329;SDS011;33060;50.178;7.570;2024-03-23T10:29:41;9.15;;;3.08;;
47329;SDS011;33060;50.178;7.570;2024-03-23T10:32:07;6.00;;;2.80;;
47329;SDS011;33060;50.178;7.570;2024-03-23T10:34:37;9.75;;;3.35;;
47329;SDS011;33060;50.178;7.570;2024-03-23T10:44:33;11.55;;;2.70;;
47329;SDS011;33060;50.178;7.570;2024-03-23T10:47:00;6.40;;;2.60;;
47329;SDS011;33060;50.178;7.570;2024-03-23T10:49:28;6.20;;;2.28;;
47329;SDS011;33060;50.178;7.570;2024-03-23T10:51:56;7.35;;;2.30;;
47329;SDS011;33060;50.178;7.570;2024-03-23T10:54:23;8.82;;;2.05;;
47329;SDS011;33060;50.178;7.570;2024-03-23T10:56:51;9.05;;;2.70;;
47329;SDS011;33060;50.178;7.570;2024-03-23T10:59:23;9.05;;;2.60;;
47329;SDS011;33060;50.178;7.570;2024-03-23T11:01:54;7.05;;;2.80;;
47329;SDS011;33060;50.178;7.570;2024-03-23T11:04:34;8.77;;;2.88;;
47329;SDS011;33060;50.178;7.570;2024-03-23T11:09:51;6.90;;;2.58;;
47329;SDS011;33060;50.178;7.570;2024-03-23T11:14:47;6.72;;;2.20;;
47329;SDS011;33060;50.178;7.570;2024-03-23T11:17:20;7.25;;;2.95;;
47329;SDS011;33060;50.178;7.570;2024-03-23T11:19:53;7.07;;;2.65;;
47329;SDS011;33060;50.178;7.570;2024-03-23T11:25:24;7.80;;;3.35;;
47329;SDS011;33060;50.178;7.570;2024-03-23T11:27:51;8.02;;;2.60;;
47329;SDS011;33060;50.178;7.570;2024-03-23T11:30:18;8.57;;;3.33;;
47329;SDS011;33060;50.178;7.570;2024-03-23T11:32:48;7.38;;;2.83;;
47329;SDS011;33060;50.178;7.570;2024-03-23T11:40:27;10.10;;;3.20;;
47329;SDS011;33060;50.178;7.570;2024-03-23T11:42:56;6.80;;;2.80;;
47329;SDS011;33060;50.178;7.570;2024-03-23T11:45:25;6.20;;;2.38;;
47329;SDS011;33060;50.178;7.570;2024-03-23T11:48:01;15.88;;;6.30;;
47329;SDS011;33060;50.178;7.570;2024-03-23T11:50:28;12.57;;;3.25;;
47329;SDS011;33060;50.178;7.570;2024-03-23T11:53:05;9.45;;;2.97;;
47329;SDS011;33060;50.178;7.570;2024-03-23T11:58:17;13.30;;;3.35;;
47329;SDS011;33060;50.178;7.570;2024-03-23T12:00:54;5.43;;;2.47;;
47329;SDS011;33060;50.178;7.570;2024-03-23T12:03:24;4.03;;;1.27;;
47329;SDS011;33060;50.178;7.570;2024-03-23T12:05:51;3.25;;;0.50;;
47329;SDS011;33060;50.178;7.570;2024-03-23T12:08:39;2.85;;;0.60;;
47329;SDS011;33060;50.178;7.570;2024-03-23T12:11:11;2.45;;;0.50;;
47329;SDS011;33060;50.178;7.570;2024-03-23T12:13:39;2.15;;;0.80;;
47329;SDS011;33060;50.178;7.570;2024-03-23T12:18:36;2.38;;;1.33;;
47329;SDS011;33060;50.178;7.570;2024-03-23T12:21:02;1.80;;;0.32;;
47329;SDS011;33060;50.178;7.570;2024-03-23T12:23:28;1.88;;;0.30;;
47329;SDS011;33060;50.178;7.570;2024-03-23T12:25:54;2.00;;;0.38;;
47329;SDS011;33060;50.178;7.570;2024-03-23T12:28:20;2.88;;;0.20;;
47329;SDS011;33060;50.178;7.570;2024-03-23T12:30:45;2.70;;;0.22;;
47329;SDS011;33060;50.178;7.570;2024-03-23T12:33:11;3.78;;;0.32;;
47329;SDS011;33060;50.178;7.570;2024-03-23T12:35:37;3.97;;;0.50;;
47329;SDS011;33060;50.178;7.570;2024-03-23T12:38:03;3.80;;;1.38;;
47329;SDS011;33060;50.178;7.570;2024-03-23T12:40:29;3.03;;;1.15;;
47329;SDS011;33060;50.178;7.570;2024-03-23T12:42:54;5.57;;;1.55;;
47329;SDS011;33060;50.178;7.570;2024-03-23T12:45:21;4.88;;;1.10;;
47329;SDS011;33060;50.178;7.570;2024-03-23T12:47:47;3.55;;;0.90;;
47329;SDS011;33060;50.178;7.570;2024-03-23T12:50:13;3.20;;;0.98;;
47329;SDS011;33060;50.178;7.570;2024-03-23T12:52:39;5.03;;;2.10;;
47329;SDS011;33060;50.178;7.570;2024-03-23T12:55:05;2.35;;;1.05;;
47329;SDS011;33060;50.178;7.570;2024-03-23T12:57:31;4.07;;;1.50;;
47329;SDS011;33060;50.178;7.570;2024-03-23T12:59:57;8.73;;;3.35;;
47329;SDS011;33060;50.178;7.570;2024-03-23T13:02:23;4.28;;;1.05;;
47329;SDS011;33060;50.178;7.570;2024-03-23T13:04:49;4.10;;;1.02;;
47329;SDS011;33060;50.178;7.570;2024-03-23T13:07:16;3.20;;;1.10;;
47329;SDS011;33060;50.178;7.570;2024-03-23T13:09:43;3.85;;;0.50;;
47329;SDS011;33060;50.178;7.570;2024-03-23T13:12:09;1.83;;;0.60;;
47329;SDS011;33060;50.178;7.570;2024-03-23T13:14:36;2.58;;;0.52;;
47329;SDS011;33060;50.178;7.570;2024-03-23T13:17:02;2.15;;;0.17;;
47329;SDS011;33060;50.178;7.570;2024-03-23T13:19:28;1.77;;;0.32;;
47329;SDS011;33060;50.178;7.570;2024-03-23T13:21:59;2.83;;;0.90;;
47329;SDS011;33060;50.178;7.570;2024-03-23T13:24:26;2.40;;;0.50;;
47329;SDS011;33060;50.178;7.570;2024-03-23T13:26:53;3.17;;;0.40;;
47329;SDS011;33060;50.178;7.570;2024-03-23T13:29:20;2.38;;;0.35;;
47329;SDS011;33060;50.178;7.570;2024-03-23T13:31:47;1.38;;;0.20;;
47329;SDS011;33060;50.178;7.570;2024-03-23T13:34:14;2.00;;;0.50;;
47329;SDS011;33060;50.178;7.570;2024-03-23T13:36:43;3.70;;;0.77;;
47329;SDS011;33060;50.178;7.570;2024-03-23T13:39:10;2.83;;;0.17;;
47329;SDS011;33060;50.178;7.570;2024-03-23T13:41:40;2.58;;;0.40;;
47329;SDS011;33060;50.178;7.570;2024-03-23T13:44:07;3.33;;;0.40;;
47329;SDS011;33060;50.178;7.570;2024-03-23T13:46:33;2.20;;;0.35;;
47329;SDS011;33060;50.178;7.570;2024-03-23T13:49:00;2.58;;;0.40;;
47329;SDS011;33060;50.178;7.570;2024-03-23T13:51:26;2.63;;;0.32;;
47329;SDS011;33060;50.178;7.570;2024-03-23T13:53:53;3.33;;;0.60;;
47329;SDS011;33060;50.178;7.570;2024-03-23T13:56:20;4.00;;;0.60;;
47329;SDS011;33060;50.178;7.570;2024-03-23T13:58:46;1.55;;;0.20;;
47329;SDS011;33060;50.178;7.570;2024-03-23T14:01:15;2.20;;;0.13;;
47329;SDS011;33060;50.178;7.570;2024-03-23T14:03:42;3.55;;;0.40;;
47329;SDS011;33060;50.178;7.570;2024-03-23T14:06:13;2.03;;;0.57;;
47329;SDS011;33060;50.178;7.570;2024-03-23T14:08:42;1.23;;;0.20;;
47329;SDS011;33060;50.178;7.570;2024-03-23T14:11:17;1.33;;;0.30;;
47329;SDS011;33060;50.178;7.570;2024-03-23T14:13:45;2.92;;;0.45;;
47329;SDS011;33060;50.178;7.570;2024-03-23T14:16:13;2.30;;;0.50;;
47329;SDS011;33060;50.178;7.570;2024-03-23T14:18:40;3.55;;;0.63;;
47329;SDS011;33060;50.178;7.570;2024-03-23T14:21:05;2.67;;;0.98;;
47329;SDS011;33060;50.178;7.570;2024-03-23T14:23:34;2.60;;;0.47;;
47329;SDS011;33060;50.178;7.570;2024-03-23T14:26:02;1.80;;;0.30;;
47329;SDS011;33060;50.178;7.570;2024-03-23T14:28:28;2.03;;;0.20;;
47329;SDS011;33060;50.178;7.570;2024-03-23T14:30:55;2.83;;;0.60;;
47329;SDS011;33060;50.178;7.570;2024-03-23T14:33:23;2.30;;;0.40;;
47329;SDS011;33060;50.178;7.570;2024-03-23T14:35:53;2.72;;;0.90;;
47329;SDS011;33060;50.178;7.570;2024-03-23T14:38:21;2.72;;;1.02;;
47329;SDS011;33060;50.178;7.570;2024-03-23T14:40:47;5.65;;;1.38;;
47329;SDS011;33060;50.178;7.570;2024-03-23T14:43:14;3.50;;;0.80;;
47329;SDS011;33060;50.178;7.570;2024-03-23T14:48:40;3.30;;;0.52;;
47329;SDS011;33060;50.178;7.570;2024-03-23T14:53:36;2.97;;;0.50;;
47329;SDS011;33060;50.178;7.570;2024-03-23T14:56:05;3.97;;;0.50;;
47329;SDS011;33060;50.178;7.570;2024-03-23T14:58:32;4.80;;;0.70;;
47329;SDS011;33060;50.178;7.570;2024-03-23T15:01:03;2.58;;;0.40;;
47329;SDS011;33060;50.178;7.570;2024-03-23T15:03:30;1.95;;;0.38;;
47329;SDS011;33060;50.178;7.570;2024-03-23T15:05:56;2.15;;;0.77;;
47329;SDS011;33060;50.178;7.570;2024-03-23T15:08:23;2.00;;;0.40;;
47329;SDS011;33060;50.178;7.570;2024-03-23T15:10:49;2.20;;;0.40;;
47329;SDS011;33060;50.178;7.570;2024-03-23T15:13:15;2.85;;;0.43;;
47329;SDS011;33060;50.178;7.570;2024-03-23T15:15:41;1.00;;;0.10;;
47329;SDS011;33060;50.178;7.570;2024-03-23T15:18:13;2.08;;;0.25;;
47329;SDS011;33060;50.178;7.570;2024-03-23T15:20:57;2.38;;;0.38;;
47329;SDS011;33060;50.178;7.570;2024-03-23T15:23:37;2.88;;;0.90;;
47329;SDS011;33060;50.178;7.570;2024-03-23T15:26:03;1.95;;;0.63;;
47329;SDS011;33060;50.178;7.570;2024-03-23T15:28:31;2.28;;;0.30;;
47329;SDS011;33060;50.178;7.570;2024-03-23T15:31:15;1.55;;;0.20;;
47329;SDS011;33060;50.178;7.570;2024-03-23T15:33:41;2.15;;;0.43;;
47329;SDS011;33060;50.178;7.570;2024-03-23T15:36:07;1.92;;;0.10;;
47329;SDS011;33060;50.178;7.570;2024-03-23T15:38:32;3.42;;;0.13;;
47329;SDS011;33060;50.178;7.570;2024-03-23T15:40:58;3.72;;;0.68;;
47329;SDS011;33060;50.178;7.570;2024-03-23T15:43:25;3.55;;;0.40;;
47329;SDS011;33060;50.178;7.570;2024-03-23T15:45:54;2.83;;;0.50;;
47329;SDS011;33060;50.178;7.570;2024-03-23T15:48:20;5.57;;;1.50;;
47329;SDS011;33060;50.178;7.570;2024-03-23T15:50:50;2.65;;;0.60;;
47329;SDS011;33060;50.178;7.570;2024-03-23T15:53:18;2.55;;;0.73;;
47329;SDS011;33060;50.178;7.570;2024-03-23T15:55:44;4.20;;;0.80;;
47329;SDS011;33060;50.178;7.570;2024-03-23T15:58:10;1.77;;;0.30;;
47329;SDS011;33060;50.178;7.570;2024-03-23T16:00:35;1.65;;;0.80;;
47329;SDS011;33060;50.178;7.570;2024-03-23T16:03:01;2.30;;;0.50;;
47329;SDS011;33060;50.178;7.570;2024-03-23T16:05:27;3.25;;;0.60;;
47329;SDS011;33060;50.178;7.570;2024-03-23T16:07:53;4.38;;;0.40;;
47329;SDS011;33060;50.178;7.570;2024-03-23T16:10:19;1.70;;;0.32;;
47329;SDS011;33060;50.178;7.570;2024-03-23T16:12:44;1.38;;;0.45;;
47329;SDS011;33060;50.178;7.570;2024-03-23T16:15:10;3.08;;;0.45;;
47329;SDS011;33060;50.178;7.570;2024-03-23T16:17:36;1.42;;;0.40;;